Time;durP1;ratioP1;P1;durP2;ratioP2;P2;SDS_P1;SDS_P2;PMS_P1;PMS_P2;Temp;Humidity;BMP_temperature;BMP_pressure;BME280_temperature;BME280_humidity;BME280_pressure;Samples;Min_cycle;Max_cycle;Signal;HPM_P1;HPM_P2
2022/06/05 00:02:56;;;;;;;4.72;4.20;;;;;;;19.82;54.34;101990.38;5095722;28;20063;-77
2022/06/05 00:05:32;;;;;;;7.50;4.60;;;;;;;19.84;53.61;101986.03;5097358;28;20034;-78
2022/06/05 00:08:21;;;;;;;6.47;4.15;;;;;;;19.84;53.66;101986.03;5095785;28;20035;-79
2022/06/05 00:11:02;;;;;;;8.40;4.53;;;;;;;19.83;53.68;101978.19;5095130;28;20028;-78
2022/06/05 00:13:44;;;;;;;9.32;4.68;;;;;;;19.82;53.56;101971.25;5095659;28;20032;-77
2022/06/05 00:16:10;;;;;;;7.40;4.70;;;;;;;19.80;53.75;101967.75;5095419;28;20024;-77
2022/06/05 00:18:38;;;;;;;7.50;4.85;;;;;;;19.78;54.14;101970.34;5095482;28;20546;-77
2022/06/05 00:21:05;;;;;;;8.18;5.10;;;;;;;19.75;53.71;101972.97;5095094;28;20034;-77
2022/06/05 00:23:31;;;;;;;8.45;4.65;;;;;;;19.75;53.50;101970.38;5095716;28;20039;-77
2022/06/05 00:26:09;;;;;;;7.20;4.70;;;;;;;19.81;53.63;101974.69;5095475;28;20024;-80
2022/06/05 00:28:40;;;;;;;6.22;4.38;;;;;;;19.86;53.43;101972.94;5096452;28;20024;-81
2022/06/05 00:31:22;;;;;;;7.53;5.05;;;;;;;19.76;53.78;101974.72;5095436;28;20024;-80
2022/06/05 00:33:50;;;;;;;11.25;4.72;;;;;;;19.72;53.91;101962.53;5095395;28;20027;-81
2022/06/05 00:36:22;;;;;;;6.63;5.10;;;;;;;19.74;53.41;101958.16;5078800;28;20051;-81
2022/06/05 00:39:19;;;;;;;8.95;4.95;;;;;;;19.75;53.22;101962.53;5096390;28;20441;-80
2022/06/05 00:41:54;;;;;;;6.75;4.75;;;;;;;19.76;53.25;101956.44;5095334;28;20020;-80
2022/06/05 00:44:39;;;;;;;7.78;5.38;;;;;;;19.76;53.22;101958.19;5094716;28;20478;-80
2022/06/05 00:47:07;;;;;;;8.80;5.00;;;;;;;19.70;53.12;101943.38;5096466;28;20024;-80
2022/06/05 00:49:38;;;;;;;7.10;4.60;;;;;;;19.73;53.32;101951.22;5096358;28;20042;-81
2022/06/05 00:52:09;;;;;;;7.32;4.88;;;;;;;19.72;53.16;101944.25;5096361;28;20024;-84
2022/06/05 00:54:34;;;;;;;8.25;4.80;;;;;;;19.75;53.08;101930.31;5095007;28;20048;-81
2022/06/05 00:57:06;;;;;;;8.15;4.63;;;;;;;19.79;53.41;101926.81;5094652;28;20441;-80
2022/06/05 00:59:32;;;;;;;8.13;5.10;;;;;;;19.70;52.82;101925.94;5095861;28;20374;-80
2022/06/05 01:01:57;;;;;;;6.57;4.70;;;;;;;19.68;53.09;101916.34;5095859;28;20051;-80
2022/06/05 01:04:23;;;;;;;9.63;4.60;;;;;;;19.71;53.12;101901.59;5094925;28;20107;-80
2022/06/05 01:06:52;;;;;;;7.88;5.03;;;;;;;19.66;52.92;101897.19;5061189;28;20062;-81
2022/06/05 01:09:18;;;;;;;7.07;4.78;;;;;;;19.66;53.15;101900.72;5077861;28;20123;-80
2022/06/05 01:11:54;;;;;;;8.18;4.53;;;;;;;19.71;52.87;101904.19;5094757;28;20057;-81
2022/06/05 01:14:30;;;;;;;5.63;4.40;;;;;;;19.78;52.84;101907.69;5094508;28;20548;-81
2022/06/05 01:17:16;;;;;;;7.80;4.80;;;;;;;19.72;52.94;101923.34;5094388;28;20038;-81
2022/06/05 01:19:55;;;;;;;7.68;4.53;;;;;;;19.78;52.90;101919.88;5095684;28;20024;-81
2022/06/05 01:22:39;;;;;;;6.38;3.80;;;;;;;19.86;52.85;101928.53;5094539;28;20055;-80
2022/06/05 01:25:17;;;;;;;5.93;4.22;;;;;;;19.86;52.60;101910.25;5095854;28;20560;-80
2022/06/05 01:27:48;;;;;;;7.45;4.50;;;;;;;19.87;52.85;101907.66;5094650;28;20036;-79
2022/06/05 01:30:22;;;;;;;6.75;4.50;;;;;;;19.87;52.96;101906.78;5094067;28;20020;-81
2022/06/05 01:32:57;;;;;;;8.05;4.72;;;;;;;19.87;52.90;101912.00;5094068;28;20412;-80
2022/06/05 01:35:33;;;;;;;7.75;4.38;;;;;;;19.87;52.73;101928.53;5093869;28;20057;-80
2022/06/05 01:38:03;;;;;;;6.75;4.03;;;;;;;19.87;52.75;101918.09;5093965;28;20478;-80
2022/06/05 01:40:37;;;;;;;5.85;4.40;;;;;;;19.83;52.65;101915.50;5093911;28;20076;-80
2022/06/05 01:43:07;;;;;;;;;;;;;;;19.74;52.99;101921.59;5094468;28;20024;-80
2022/06/05 01:45:44;;;;;;;8.60;4.63;;;;;;;19.75;52.84;101925.97;5095304;28;19912;-80
2022/06/05 01:48:17;;;;;;;6.68;4.65;;;;;;;19.76;52.62;101921.63;5094153;28;20024;-80
2022/06/05 01:50:47;;;;;;;8.27;4.68;;;;;;;19.77;52.52;101915.50;5095163;28;20027;-80
2022/06/05 01:53:23;;;;;;;7.50;4.82;;;;;;;19.79;52.57;101908.53;5093700;28;20061;-80
2022/06/05 01:56:02;;;;;;;7.43;4.50;;;;;;;19.78;52.71;101909.44;5094978;28;20087;-79
2022/06/05 01:58:46;;;;;;;7.68;4.70;;;;;;;19.71;52.62;101913.78;5095020;28;20024;-80
2022/06/05 02:01:24;;;;;;;7.47;5.20;;;;;;;19.75;52.57;101905.06;5093106;28;20086;-80
2022/06/05 02:04:15;;;;;;;8.55;4.97;;;;;;;19.72;52.79;101890.25;5095701;28;20382;-80
2022/06/05 02:06:53;;;;;;;7.43;4.93;;;;;;;19.69;52.44;101884.16;5084409;28;20048;-78
2022/06/05 02:09:33;;;;;;;8.48;5.03;;;;;;;19.64;52.45;101886.78;5096009;28;20024;-78
2022/06/05 02:11:59;;;;;;;7.97;5.10;;;;;;;19.66;52.57;101889.38;5096474;28;20058;-79
2022/06/05 02:14:25;;;;;;;8.25;4.70;;;;;;;19.70;52.49;101883.31;5096453;28;20024;-81
2022/06/05 02:16:50;;;;;;;7.20;4.50;;;;;;;19.73;52.50;101878.09;5094614;28;20037;-80
2022/06/05 02:19:19;;;;;;;8.82;4.60;;;;;;;19.76;52.30;101870.25;5060185;28;20028;-80
2022/06/05 02:21:45;;;;;;;6.95;4.47;;;;;;;19.79;52.50;101869.34;5094851;28;20024;-80
2022/06/05 02:24:12;;;;;;;8.50;4.55;;;;;;;19.80;52.28;101873.72;5095726;28;20020;-80
2022/06/05 02:26:38;;;;;;;6.43;4.45;;;;;;;19.80;52.27;101873.72;5094591;28;20028;-81
2022/06/05 02:29:11;;;;;;;8.10;4.03;;;;;;;19.85;52.52;101871.97;5094612;28;20085;-82
2022/06/05 02:31:49;;;;;;;6.10;4.07;;;;;;;19.85;52.17;101869.34;5094755;28;20445;-81
2022/06/05 02:34:37;;;;;;;7.25;4.57;;;;;;;19.86;52.30;101869.34;5092953;28;20024;-80
2022/06/05 02:37:16;;;;;;;7.35;4.15;;;;;;;19.90;52.33;101863.25;5094273;28;20031;-81
2022/06/05 02:39:50;;;;;;;6.95;3.92;;;;;;;19.88;51.94;101859.78;5092994;28;20030;-81
2022/06/05 02:42:19;;;;;;;6.82;4.53;;;;;;;19.87;52.09;101860.63;5092879;28;20476;-80
2022/06/05 02:44:53;;;;;;;7.13;4.50;;;;;;;19.88;52.14;101865.00;5092792;28;20020;-80
2022/06/05 02:47:38;;;;;;;6.22;4.35;;;;;;;19.91;52.29;101880.66;5093003;28;20115;-80
2022/06/05 02:50:28;;;;;;;6.00;4.25;;;;;;;19.97;52.25;101874.56;5092874;28;20126;-78
2022/06/05 02:53:01;;;;;;;7.85;4.07;;;;;;;20.00;52.12;101871.06;5094602;28;20036;-80
2022/06/05 02:55:27;;;;;;;5.07;3.80;;;;;;;20.01;51.97;101871.06;5092505;28;20027;-80
2022/06/05 02:57:52;;;;;;;7.60;4.10;;;;;;;20.02;52.19;101857.09;5094097;28;20032;-82
2022/06/05 03:00:26;;;;;;;5.35;3.78;;;;;;;20.02;52.17;101844.03;5092502;28;20051;-80
2022/06/05 03:05:38;;;;;;;5.72;3.70;;;;;;;20.06;52.04;101845.78;5094256;28;20075;-80
2022/06/05 03:08:05;;;;;;;6.60;4.30;;;;;;;19.98;51.92;101837.09;5092623;28;20118;-79
2022/06/05 03:10:31;;;;;;;8.48;4.22;;;;;;;19.91;52.08;101833.63;5092424;28;20077;-80
2022/06/05 03:12:56;;;;;;;6.70;4.15;;;;;;;19.93;51.95;101821.44;5075773;28;20028;-79
2022/06/05 03:15:22;;;;;;;7.68;4.68;;;;;;;19.90;51.83;101815.34;5092607;28;20462;-79
2022/06/05 03:17:48;;;;;;;7.07;4.50;;;;;;;19.91;52.12;101811.88;5092716;28;20028;-80
2022/06/05 03:20:15;;;;;;;8.18;4.00;;;;;;;19.90;51.82;101815.34;5092456;28;20103;-81
2022/06/05 03:22:41;;;;;;;6.45;4.75;;;;;;;19.88;51.91;101804.03;5094172;28;20067;-82
2022/06/05 03:25:07;;;;;;;7.00;4.38;;;;;;;19.88;52.01;101797.06;5096724;28;20466;-82
2022/06/05 03:27:33;;;;;;;5.25;4.55;;;;;;;19.86;52.01;101805.78;5096583;28;20490;-80
2022/06/05 03:29:59;;;;;;;9.35;5.15;;;;;;;19.82;52.04;101781.44;5079511;28;20035;-80
2022/06/05 03:32:25;;;;;;;9.10;4.60;;;;;;;19.79;52.04;101788.38;5080482;28;20028;-80
2022/06/05 03:34:51;;;;;;;6.25;4.85;;;;;;;19.74;51.77;101783.19;5098317;28;20092;-80
2022/06/05 03:37:16;;;;;;;7.57;4.63;;;;;;;19.73;51.94;101781.47;5097740;28;20089;-81
2022/06/05 03:39:42;;;;;;;7.13;5.10;;;;;;;19.76;51.88;101781.44;5097683;28;20073;-80
2022/06/05 03:42:07;;;;;;;5.95;4.90;;;;;;;19.77;51.70;101774.47;5096020;28;20500;-82
2022/06/05 03:44:37;;;;;;;6.25;4.53;;;;;;;19.77;51.63;101764.03;5096388;28;20036;-80
2022/06/05 03:47:03;;;;;;;8.65;5.15;;;;;;;19.71;51.80;101763.19;5079506;28;20032;-81
2022/06/05 03:49:29;;;;;;;9.88;4.82;;;;;;;19.67;51.85;101755.34;5097395;28;20366;-80
2022/06/05 03:51:54;;;;;;;7.75;4.95;;;;;;;19.68;51.74;101752.69;5096354;28;20074;-81
2022/06/05 03:54:19;;;;;;;8.82;4.93;;;;;;;19.72;51.82;101751.00;5079049;28;20028;-81
2022/06/05 03:56:45;;;;;;;7.57;5.00;;;;;;;19.69;51.70;101750.97;5078963;28;20501;-80
2022/06/05 03:59:10;;;;;;;8.60;4.80;;;;;;;19.67;51.52;101739.66;5095956;28;20393;-81
2022/06/05 04:01:35;;;;;;;9.85;5.15;;;;;;;19.62;51.66;101744.00;5078680;28;20438;-80
2022/06/05 04:04:01;;;;;;;7.05;4.88;;;;;;;19.65;51.51;101746.63;5079227;28;20024;-80
2022/06/05 04:06:29;;;;;;;7.82;5.22;;;;;;;19.68;51.37;101742.25;5078889;28;20024;-80
2022/06/05 04:08:56;;;;;;;7.43;4.82;;;;;;;19.63;51.60;101754.47;5097111;28;20084;-80
2022/06/05 04:11:21;;;;;;;7.13;4.55;;;;;;;19.68;51.34;101751.84;5096920;28;20044;-81
2022/06/05 04:13:47;;;;;;;7.35;4.80;;;;;;;19.66;51.31;101746.63;5096034;28;20059;-80
2022/06/05 04:16:24;;;;;;;8.48;5.35;;;;;;;19.68;51.52;101741.38;5096503;28;20035;-81
2022/06/05 04:18:51;;;;;;;6.50;4.68;;;;;;;19.61;51.38;101743.16;5096967;28;20092;-82
2022/06/05 04:21:20;;;;;;;7.15;4.93;;;;;;;19.66;51.27;101735.31;5096855;28;20070;-82
2022/06/05 04:23:46;;;;;;;6.35;4.68;;;;;;;19.65;51.50;101742.28;5095431;28;20031;-82
2022/06/05 04:26:16;;;;;;;8.20;4.57;;;;;;;19.65;51.40;101734.44;5095313;28;20056;-82
2022/06/05 04:28:42;;;;;;;7.32;4.68;;;;;;;19.69;51.46;101743.16;5095639;28;20061;-80
2022/06/05 04:31:20;;;;;;;7.10;4.72;;;;;;;19.67;51.36;101735.31;5096666;28;20110;-81
2022/06/05 04:33:46;;;;;;;7.45;4.93;;;;;;;19.63;51.50;101730.09;5094513;28;20481;-81
2022/06/05 04:36:12;;;;;;;9.65;5.90;;;;;;;19.64;51.51;101727.50;5078247;28;20039;-81
2022/06/05 04:38:38;;;;;;;9.00;4.50;;;;;;;19.64;51.44;101724.00;5096540;28;20350;-80
2022/06/05 04:41:03;;;;;;;7.13;4.95;;;;;;;19.66;51.29;101719.63;5078190;28;20035;-79
2022/06/05 04:43:29;;;;;;;6.50;4.47;;;;;;;19.63;51.36;101717.91;5078382;28;20031;-79
2022/06/05 04:45:54;;;;;;;7.93;4.97;;;;;;;19.61;51.34;101713.56;5095201;28;20385;-78
2022/06/05 04:48:19;;;;;;;7.28;5.07;;;;;;;19.56;51.49;101707.50;5078294;28;20106;-78
2022/06/05 04:50:45;;;;;;;8.73;4.32;;;;;;;20.00;51.04;101709.06;5078305;28;20114;-85
2022/06/05 04:53:10;;;;;;;7.07;3.90;;;;;;;20.12;50.64;101704.63;5078582;28;20089;-87
2022/06/05 04:55:37;;;;;;;5.30;3.35;;;;;;;20.36;50.25;101718.44;5080203;28;20135;-86
2022/06/05 04:58:03;;;;;;;3.75;3.00;;;;;;;20.46;49.98;101729.66;5081785;28;20028;-86
2022/06/05 05:00:28;;;;;;;3.92;3.17;;;;;;;20.48;50.04;101720.94;5078048;28;20081;-87
2022/06/05 05:02:54;;;;;;;4.03;3.30;;;;;;;20.49;49.92;101720.06;5061632;28;20032;-87
2022/06/05 05:05:19;;;;;;;5.43;3.78;;;;;;;20.53;49.95;101715.66;5078138;28;20482;-86
2022/06/05 05:07:45;;;;;;;6.18;3.40;;;;;;;20.56;49.90;101702.56;5095390;28;20085;-87
2022/06/05 05:10:10;;;;;;;5.35;3.42;;;;;;;20.59;49.63;101712.16;5078064;28;20046;-87
2022/06/05 05:12:36;;;;;;;5.90;3.60;;;;;;;20.53;49.46;101699.97;5077826;28;20032;-86
2022/06/05 05:15:02;;;;;;;6.72;4.03;;;;;;;20.41;49.51;101694.84;5061513;28;20510;-85
2022/06/05 05:17:27;;;;;;;4.60;3.70;;;;;;;20.41;49.61;101703.56;5078024;28;20028;-87
2022/06/05 05:19:52;;;;;;;4.97;4.07;;;;;;;20.32;49.80;101688.81;5095490;28;20097;-88
2022/06/05 05:22:18;;;;;;;6.43;3.45;;;;;;;20.35;49.63;101694.00;5077966;28;20035;-86
2022/06/05 05:24:44;;;;;;;4.57;3.67;;;;;;;20.33;49.85;101697.53;5094791;28;20431;-85
2022/06/05 05:27:10;;;;;;;5.95;3.58;;;;;;;20.41;49.70;101690.50;5078022;28;20028;-85
2022/06/05 05:29:39;;;;;;;5.90;4.03;;;;;;;20.33;49.40;101690.53;5077438;28;20031;-87
2022/06/05 05:32:04;;;;;;;5.50;3.80;;;;;;;20.40;49.65;101693.09;5095137;28;20031;-85
2022/06/05 05:34:30;;;;;;;6.40;4.03;;;;;;;20.39;49.45;101691.38;5077493;28;20031;-86
2022/06/05 05:36:55;;;;;;;6.65;3.63;;;;;;;20.46;49.53;101685.22;5078718;28;20051;-87
2022/06/05 05:42:05;;;;;;;5.55;3.92;;;;;;;20.46;49.55;101687.84;5094809;28;20108;-86
2022/06/05 05:44:36;;;;;;;4.78;3.35;;;;;;;20.46;49.59;101693.06;5076958;28;20462;-87
2022/06/05 05:47:06;;;;;;;4.35;3.50;;;;;;;20.47;49.50;101692.16;5094435;28;20198;-84
2022/06/05 05:49:31;;;;;;;6.55;4.38;;;;;;;20.41;49.62;101689.63;5094935;28;20024;-86
2022/06/05 05:51:57;;;;;;;5.80;3.78;;;;;;;20.52;49.64;101686.03;5094632;28;20093;-88
2022/06/05 05:54:22;;;;;;;4.90;3.70;;;;;;;20.47;49.32;101681.72;5077063;28;20034;-88
2022/06/05 05:56:47;;;;;;;4.72;3.70;;;;;;;20.45;49.69;101673.91;5060789;28;20415;-88
2022/06/05 05:59:13;;;;;;;5.05;4.05;;;;;;;20.43;49.30;101685.25;5060911;28;20039;-88
2022/06/05 06:01:38;;;;;;;7.55;3.90;;;;;;;20.42;49.56;101671.28;5093916;28;20083;-88
2022/06/05 06:04:04;;;;;;;6.82;4.07;;;;;;;20.44;49.52;101660.84;5077104;28;20040;-88
2022/06/05 06:06:32;;;;;;;6.30;4.13;;;;;;;20.43;49.44;101659.13;5060601;28;20020;-88
2022/06/05 06:08:58;;;;;;;6.22;3.78;;;;;;;20.45;49.39;101668.69;5094045;28;20045;-88
2022/06/05 06:11:25;;;;;;;6.90;3.85;;;;;;;20.48;49.29;101668.63;5077378;28;20383;-89
2022/06/05 06:13:51;;;;;;;4.65;3.33;;;;;;;20.61;49.34;101679.88;5094084;28;20032;-89
2022/06/05 06:16:16;;;;;;;7.25;3.63;;;;;;;20.58;49.18;101672.09;5095235;28;20523;-88
2022/06/05 06:18:42;;;;;;;4.55;3.63;;;;;;;20.65;49.23;101678.13;5095562;28;20032;-88
2022/06/05 06:21:07;;;;;;;5.13;3.90;;;;;;;20.53;49.37;101677.31;5073171;28;20043;-89
2022/06/05 06:23:32;;;;;;;5.82;3.78;;;;;;;20.60;49.19;101669.44;5077316;28;20024;-88
2022/06/05 06:25:57;;;;;;;5.05;3.75;;;;;;;20.51;49.20;101668.63;5076801;28;20115;-88
2022/06/05 06:28:23;;;;;;;8.43;3.80;;;;;;;20.54;49.71;101663.34;5060286;28;20058;-88
2022/06/05 06:30:49;;;;;;;5.60;4.05;;;;;;;20.47;49.22;101658.19;5094193;28;20027;-89
2022/06/05 06:33:14;;;;;;;6.03;4.43;;;;;;;20.50;49.35;101656.41;5094023;28;20465;-88
2022/06/05 06:35:40;;;;;;;5.80;4.28;;;;;;;20.49;49.40;101656.41;5077051;28;20036;-89
2022/06/05 06:38:06;;;;;;;8.45;4.28;;;;;;;20.48;49.66;101652.09;5076842;28;20028;-89
2022/06/05 06:40:32;;;;;;;6.22;4.28;;;;;;;20.43;49.57;101652.13;5094319;28;20024;-88
2022/06/05 06:42:58;;;;;;;5.07;4.10;;;;;;;20.45;49.68;101649.50;5098565;28;20045;-85
2022/06/05 06:45:24;;;;;;;4.57;4.05;;;;;;;20.41;49.57;101646.03;5094535;28;20028;-87
2022/06/05 06:47:50;;;;;;;4.85;3.80;;;;;;;20.42;49.57;101644.28;5076694;28;20493;-88
2022/06/05 06:50:17;;;;;;;6.65;4.35;;;;;;;20.45;49.53;101639.06;5076534;28;20032;-87
2022/06/05 06:52:42;;;;;;;6.40;4.50;;;;;;;20.42;49.63;101636.44;5094942;28;20079;-86
2022/06/05 06:55:11;;;;;;;5.30;4.38;;;;;;;20.51;49.44;101638.97;5094747;28;20481;-84
2022/06/05 06:57:36;;;;;;;7.50;3.10;;;;;;;20.65;49.61;101639.75;5095783;28;20027;-87
2022/06/05 07:00:04;;;;;;;11.80;4.82;;;;;;;20.77;51.10;101638.75;5076412;28;20396;-88
2022/06/05 07:02:29;;;;;;;7.03;4.28;;;;;;;20.80;50.71;101640.50;5105367;28;20111;-87
2022/06/05 07:04:55;;;;;;;5.70;4.20;;;;;;;20.69;49.87;101625.78;5076410;28;20048;-88
2022/06/05 07:07:20;;;;;;;6.00;4.00;;;;;;;20.71;50.42;101629.25;5059433;28;20028;-85
2022/06/05 07:09:45;;;;;;;7.22;4.05;;;;;;;20.72;49.95;101624.88;5076027;28;20131;-87
2022/06/05 07:12:11;;;;;;;13.32;4.35;;;;;;;20.66;50.30;101622.31;5059886;28;20074;-88
2022/06/05 07:14:36;;;;;;;5.03;3.90;;;;;;;20.64;50.50;101614.47;5093550;28;20078;-83
2022/06/05 07:17:02;;;;;;;5.07;3.90;;;;;;;20.64;50.52;101614.47;5094502;28;20024;-84
2022/06/05 07:19:27;;;;;;;6.60;3.83;;;;;;;20.74;50.61;101616.13;5076045;28;20043;-87
2022/06/05 07:21:52;;;;;;;8.95;4.30;;;;;;;20.72;50.79;101606.56;5076080;28;20038;-88
2022/06/05 07:24:18;;;;;;;9.95;4.60;;;;;;;20.68;50.88;101607.47;5059214;28;20118;-87
2022/06/05 07:26:44;;;;;;;6.07;4.18;;;;;;;20.68;52.29;101605.72;5076246;28;20462;-88
2022/06/05 07:29:09;;;;;;;5.68;4.30;;;;;;;20.68;51.38;101604.84;5076352;28;20028;-90
2022/06/05 07:31:34;;;;;;;6.65;4.18;;;;;;;20.67;51.66;101601.38;5093273;28;20487;-89
2022/06/05 07:34:00;;;;;;;4.55;3.90;;;;;;;20.66;51.47;101597.00;5076333;28;20055;-83
2022/06/05 07:36:27;;;;;;;7.05;4.18;;;;;;;20.65;53.11;101592.69;5092691;28;20020;-82
2022/06/05 07:38:54;;;;;;;9.88;4.00;;;;;;;20.64;52.47;101585.69;5075985;28;20028;-85
2022/06/05 07:41:33;;;;;;;12.75;4.60;;;;;;;20.61;53.03;101574.44;5093141;28;20081;-86
2022/06/05 07:44:00;;;;;;;20.40;4.53;;;;;;;20.61;53.56;101577.03;5098547;28;20028;-86
2022/06/05 07:46:30;;;;;;;15.55;4.57;;;;;;;20.60;53.03;101570.06;5092854;28;20020;-88
2022/06/05 07:48:56;;;;;;;13.75;4.50;;;;;;;20.63;53.77;101570.06;5076417;28;20048;-85
2022/06/05 07:54:28;;;;;;;13.27;4.22;;;;;;;20.66;53.02;101567.41;5094090;28;20038;-84
2022/06/05 07:57:08;;;;;;;8.85;4.55;;;;;;;20.67;53.88;101563.91;5092629;28;20035;-87
2022/06/05 07:59:39;;;;;;;4.60;4.10;;;;;;;20.65;53.41;101557.84;5092742;28;20111;-90
2022/06/05 08:02:08;;;;;;;11.43;4.55;;;;;;;20.68;53.32;101553.41;5092133;28;20048;-86
2022/06/05 08:04:35;;;;;;;8.00;4.38;;;;;;;20.71;53.09;101545.53;5093915;28;20591;-86
2022/06/05 08:07:02;;;;;;;8.45;4.05;;;;;;;20.73;52.61;101538.56;5092529;28;20382;-86
2022/06/05 08:09:29;;;;;;;7.55;3.90;;;;;;;20.74;54.19;101540.28;5095168;28;20023;-86
2022/06/05 08:11:54;;;;;;;8.07;4.07;;;;;;;20.75;54.09;101534.16;5096095;28;20149;-87
2022/06/05 08:14:20;;;;;;;9.07;4.10;;;;;;;20.75;53.12;101530.66;5096036;28;20062;-85
2022/06/05 08:16:46;;;;;;;5.78;3.78;;;;;;;20.78;53.09;101524.56;5095816;28;20036;-85
2022/06/05 08:19:20;;;;;;;5.20;4.45;;;;;;;20.80;53.44;101525.41;5079039;28;20030;-86
2022/06/05 08:21:47;;;;;;;8.20;3.83;;;;;;;20.83;52.07;101528.84;5096166;28;20028;-87
2022/06/05 08:24:13;;;;;;;5.95;3.63;;;;;;;20.85;53.13;101531.44;5096944;28;20031;-86
2022/06/05 08:26:39;;;;;;;7.60;3.90;;;;;;;20.85;52.97;101529.69;5100363;28;20564;-84
2022/06/05 08:29:05;;;;;;;8.27;4.05;;;;;;;20.85;52.59;101526.22;5095859;28;20458;-86
2022/06/05 08:31:33;;;;;;;7.55;4.10;;;;;;;20.88;53.26;101523.53;5079170;28;20069;-86
2022/06/05 08:33:58;;;;;;;5.10;3.88;;;;;;;20.90;52.56;101525.25;5096190;28;20107;-87
2022/06/05 08:36:25;;;;;;;6.93;3.90;;;;;;;20.91;52.46;101519.16;5095749;28;20118;-85
2022/06/05 08:42:13;;;;;;;6.50;4.50;;;;;;;20.89;52.65;101502.59;5082882;28;20034;-85
2022/06/05 08:44:57;;;;;;;8.00;4.32;;;;;;;20.92;52.72;101496.44;5078521;28;20043;-85
2022/06/05 08:47:29;;;;;;;5.13;4.13;;;;;;;20.96;52.75;101493.78;5098223;28;20038;-84
2022/06/05 08:50:04;;;;;;;5.82;4.32;;;;;;;21.03;52.30;101489.31;5080656;28;20024;-86
2022/06/05 08:52:47;;;;;;;4.78;3.92;;;;;;;21.07;53.09;101483.16;5096655;28;20024;-86
2022/06/05 08:55:18;;;;;;;5.63;4.35;;;;;;;21.10;53.32;101487.47;5096543;28;20016;-84
2022/06/05 08:57:48;;;;;;;6.78;4.38;;;;;;;21.09;53.30;101481.41;5095699;28;20127;-86
2022/06/05 09:00:20;;;;;;;6.45;4.78;;;;;;;21.11;52.50;101468.28;5096269;28;20102;-85
2022/06/05 09:03:22;;;;;;;7.75;4.80;;;;;;;21.16;52.07;101469.09;5096157;28;20016;-85
2022/06/05 09:05:51;;;;;;;4.88;4.13;;;;;;;21.22;51.96;101469.00;5041881;28;20396;-86
2022/06/05 09:08:20;;;;;;;5.35;4.07;;;;;;;21.27;51.45;101472.41;5098824;28;20052;-85
2022/06/05 09:10:48;;;;;;;5.50;3.75;;;;;;;21.29;52.66;101459.31;5095553;28;20042;-86
2022/06/05 09:13:28;;;;;;;6.32;4.78;;;;;;;21.30;51.71;101458.44;5095768;28;20432;-86
2022/06/05 09:16:03;;;;;;;6.50;4.57;;;;;;;21.30;51.68;101459.28;5095059;28;20027;-84
2022/06/05 09:18:37;;;;;;;6.40;4.43;;;;;;;21.31;52.26;101453.16;5096064;28;20435;-87
2022/06/05 09:21:06;;;;;;;;;;;;;;;21.30;52.80;101455.81;5095166;28;20114;-86
2022/06/05 09:23:40;;;;;;;7.70;4.30;;;;;;;21.32;53.22;101454.91;5094925;28;19907;-86
2022/06/05 09:26:27;;;;;;;6.53;4.28;;;;;;;21.36;52.30;101451.34;5094808;28;20028;-86
2022/06/05 09:29:20;;;;;;;7.78;4.32;;;;;;;21.34;52.43;101445.25;5095143;28;20024;-87
2022/06/05 09:32:13;;;;;;;9.07;4.57;;;;;;;21.35;52.80;101438.28;5095371;28;20031;-87
2022/06/05 09:34:43;;;;;;;16.45;6.43;;;;;;;21.37;53.92;101442.59;5097153;28;20065;-87
2022/06/05 09:37:22;;;;;;;16.77;8.82;;;;;;;21.41;53.64;101440.81;5095839;28;20028;-88
2022/06/05 09:39:58;;;;;;;16.90;8.57;;;;;;;21.43;53.89;101441.66;5096616;28;20023;-86
2022/06/05 09:42:42;;;;;;;16.50;6.97;;;;;;;;;;5094984;28;20024;-88
2022/06/05 09:45:18;;;;;;;11.73;5.90;;;;;;;;;;5095284;28;20485;-84
2022/06/05 09:47:56;;;;;;;10.00;6.70;;;;;;;21.47;53.57;101456.44;5098555;28;20114;-86
2022/06/05 09:50:26;;;;;;;11.20;4.95;;;;;;;21.52;53.58;101470.31;5105834;28;20370;-86
2022/06/05 09:52:52;;;;;;;8.73;4.75;;;;;;;21.56;53.46;101476.38;5095359;28;20054;-87
2022/06/05 09:55:27;;;;;;;8.40;5.30;;;;;;;21.57;53.38;101481.56;5094898;28;20065;-87
2022/06/05 10:00:53;;;;;;;7.93;4.93;;;;;;;21.60;53.04;101493.78;5096105;28;20077;-88
2022/06/05 10:03:29;;;;;;;6.50;4.70;;;;;;;21.65;53.58;101489.31;5094836;28;20027;-87
2022/06/05 10:06:17;;;;;;;10.32;4.85;;;;;;;21.64;53.40;101492.81;5095847;28;20469;-88
2022/06/05 10:08:46;;;;;;;7.05;4.65;;;;;;;21.64;54.03;101494.56;5096136;28;20509;-84
2022/06/05 10:11:31;;;;;;;6.03;4.68;;;;;;;21.63;53.87;101500.72;5094993;28;20035;-86
2022/06/05 10:13:59;;;;;;;6.85;5.80;;;;;;;21.62;53.80;101493.72;5094506;28;20114;-88
2022/06/05 10:16:33;;;;;;;7.55;4.43;;;;;;;21.62;53.52;101494.59;5094861;28;20493;-87
2022/06/05 10:19:29;;;;;;;9.30;5.00;;;;;;;21.62;53.94;101494.59;5094673;28;20120;-87
2022/06/05 10:22:24;;;;;;;11.25;5.93;;;;;;;21.61;53.71;101492.88;5094323;28;20115;-87
2022/06/05 10:25:13;;;;;;;9.18;5.25;;;;;;;21.63;53.36;101485.00;5093741;28;20474;-87
2022/06/05 10:27:49;;;;;;;7.63;4.88;;;;;;;21.64;53.99;101487.56;5095085;28;20028;-87
2022/06/05 10:30:17;;;;;;;6.82;5.68;;;;;;;21.64;53.57;101484.97;5101980;28;20028;-83
2022/06/05 10:33:20;;;;;;;6.35;4.60;;;;;;;21.65;53.94;101491.09;5099705;28;20042;-88
2022/06/05 10:36:09;;;;;;;9.27;6.03;;;;;;;21.62;53.79;101481.50;5094107;28;20428;-87
2022/06/05 10:39:03;;;;;;;5.55;4.32;;;;;;;21.65;53.73;101473.59;5094338;28;20386;-86
2022/06/05 10:41:37;;;;;;;6.57;5.15;;;;;;;21.67;54.11;101474.44;5095392;28;20020;-86
2022/06/05 10:44:03;;;;;;;6.63;4.28;;;;;;;21.70;53.89;101470.91;5093948;28;20113;-87
2022/06/05 10:46:31;;;;;;;7.95;4.78;;;;;;;21.70;53.43;101469.16;5093928;28;20028;-87
2022/06/05 10:49:11;;;;;;;5.88;4.35;;;;;;;21.71;53.81;101470.00;5078025;28;20039;-88
2022/06/05 10:52:05;;;;;;;8.20;4.95;;;;;;;21.72;53.77;101469.13;5094672;28;20027;-85
2022/06/05 10:54:44;;;;;;;7.70;4.47;;;;;;;21.72;53.77;101462.13;5093130;28;20028;-87
2022/06/05 10:57:28;;;;;;;6.07;4.68;;;;;;;21.74;54.05;101462.09;5094745;28;20028;-87
2022/06/05 11:00:05;;;;;;;4.55;3.90;;;;;;;21.74;53.91;101455.09;5093433;28;20024;-85
2022/06/05 11:03:05;;;;;;;6.85;4.40;;;;;;;21.77;53.66;101449.84;5093613;28;20036;-87
2022/06/05 11:06:09;;;;;;;6.20;4.65;;;;;;;21.73;53.71;101442.91;5093823;28;20043;-87
2022/06/05 11:08:56;;;;;;;6.10;5.50;;;;;;;21.75;53.35;101445.47;5042574;28;20028;-86
2022/06/05 11:14:19;;;;;;;5.53;4.60;;;;;;;21.76;54.12;101439.38;5099104;28;20046;-85
2022/06/05 11:17:17;;;;;;;6.03;4.78;;;;;;;21.80;53.94;101440.16;5092982;28;20103;-85
2022/06/05 11:20:06;;;;;;;5.70;4.70;;;;;;;21.81;54.09;101437.53;5092713;28;20047;-86
2022/06/05 11:22:34;;;;;;;5.25;4.70;;;;;;;21.81;53.76;101441.91;5092789;28;20071;-85
2022/06/05 11:25:11;;;;;;;5.68;4.40;;;;;;;21.81;53.85;101432.28;5092868;28;20025;-84
2022/06/05 11:27:53;;;;;;;5.65;4.25;;;;;;;21.81;54.24;101436.66;5092700;28;20083;-85
2022/06/05 11:30:30;;;;;;;6.32;4.55;;;;;;;21.78;54.08;101432.34;5093882;28;20540;-85
2022/06/05 11:33:09;;;;;;;5.07;4.57;;;;;;;21.78;53.88;101434.97;5093802;28;20024;-85
2022/06/05 11:35:57;;;;;;;5.10;4.50;;;;;;;21.77;54.40;101431.50;5092778;28;20016;-85
2022/06/05 11:38:50;;;;;;;6.47;5.53;;;;;;;21.77;54.36;101434.13;5092593;28;20028;-85
2022/06/05 11:41:26;;;;;;;5.07;4.57;;;;;;;21.77;54.43;101431.50;5092942;28;20470;-86
2022/06/05 11:44:07;;;;;;;5.43;4.90;;;;;;;21.78;54.14;101429.72;5094583;28;20032;-85
2022/06/05 11:46:45;;;;;;;6.07;4.95;;;;;;;21.74;54.24;101426.28;5096705;28;20028;-84
2022/06/05 11:49:20;;;;;;;5.68;4.60;;;;;;;21.75;54.46;101424.53;5096555;28;20363;-85
2022/06/05 11:52:01;;;;;;;5.18;4.35;;;;;;;21.74;54.31;101422.81;5096502;28;20042;-85
2022/06/05 11:55:01;;;;;;;4.50;4.10;;;;;;;21.74;54.44;101422.81;5099482;28;20058;-80
2022/06/05 11:57:38;;;;;;;5.70;5.20;;;;;;;21.76;54.28;101416.66;5097943;28;20028;-85
2022/06/05 12:00:31;;;;;;;5.13;4.63;;;;;;;21.73;54.37;101419.34;5096189;28;20028;-85
2022/06/05 12:03:16;;;;;;;7.80;5.22;;;;;;;21.73;53.85;101416.72;5097036;28;20097;-85
2022/06/05 12:05:51;;;;;;;6.88;5.82;;;;;;;21.67;54.27;101416.81;5096987;28;20420;-85
2022/06/05 12:08:30;;;;;;;7.30;6.30;;;;;;;21.67;54.37;101413.34;5096587;28;20028;-85